Data for 02/23/2005

Time Sea-Level Adjusted Pressure Absolute Pressure Temperature Relative Humidity Dew Point   
(mb) (inHg) (mb) (inHg) (C) (F) (%) (C) (F)
00:05 1022 30.18 852 25.16 -3.6 25.5 59 -10.4 13.3
00:10 1022 30.18 851 25.13 -3.4 25.9 58 -10.5 13.1
00:15 1022 30.18 851 25.13 -3.1 26.4 57 -10.4 13.3
00:20 1022 30.18 851 25.13 -2.9 26.8 57 -10.2 13.7
00:25 1022 30.18 851 25.13 -2.7 27.1 57 -10.2 13.7
00:30 1022 30.18 851 25.13 -2.5 27.5 55 -10.4 13.2
00:35 1022 30.18 851 25.13 -2.1 28.2 54 -10.3 13.5
00:40 1022 30.18 852 25.16 -2.1 28.3 54 -10.2 13.7
00:45 1022 30.18 852 25.16 -2.3 27.9 55 -10.2 13.7
00:50 1022 30.18 852 25.16 -2.6 27.3 57 -9.9 14.1
00:55 1022 30.18 852 25.16 -2.9 26.7 57 -10.2 13.6
01:00 1022 30.18 852 25.16 -3 26.5 58 -10.2 13.7
01:05 1022 30.18 852 25.16 -3.1 26.4 59 -10 14
01:10 1022 30.18 852 25.16 -3.2 26.2 59 -10.2 13.6
01:15 1023 30.21 852 25.16 -3.4 25.9 60 -10.2 13.7
01:20 1023 30.21 852 25.16 -3.5 25.7 59 -10.4 13.2
01:25 1023 30.21 852 25.16 -3.4 25.8 60 -10.2 13.6
01:30 1023 30.21 852 25.16 -3.4 25.8 59 -10.3 13.5
01:35 1023 30.21 852 25.16 -3.4 25.8 61 -10 14
01:40 1023 30.21 852 25.16 -3.6 25.5 61 -10.2 13.6
01:45 1023 30.21 852 25.16 -3.6 25.5 59 -10.4 13.3
01:50 1023 30.21 852 25.16 -3.4 25.9 59 -10.3 13.5
01:55 1023 30.21 852 25.16 -3.3 26 58 -10.4 13.3
02:00 1023 30.21 852 25.16 -3.4 25.9 59 -10.3 13.4
02:05 1023 30.21 852 25.16 -3.4 26 60 -10.1 13.8
02:10 1023 30.21 852 25.16 -3.2 26.3 59 -10.2 13.6
02:15 1023 30.21 852 25.16 -3.2 26.3 59 -10 14
02:20 1023 30.21 852 25.16 -3.4 25.8 61 -9.9 14.1
02:25 1023 30.21 852 25.16 -3.4 25.9 61 -9.9 14.1
02:30 1023 30.21 852 25.16 -3.3 26 59 -10.3 13.5
02:35 1023 30.21 852 25.16 -3.5 25.6 60 -10.3 13.5
02:40 1023 30.21 852 25.16 -3.8 25.2 61 -10.2 13.6
02:45 1023 30.21 852 25.16 -4.1 24.7 61 -10.5 13.2
02:50 1022 30.18 852 25.16 -4.2 24.5 61 -10.6 12.9
02:55 1022 30.18 852 25.16 -4.2 24.4 62 -10.4 13.2
03:00 1022 30.18 852 25.16 -4.2 24.4 62 -10.4 13.3
03:05 1022 30.18 852 25.16 -4.3 24.2 63 -10.4 13.3
03:10 1022 30.18 851 25.13 -4.3 24.3 62 -10.4 13.2
03:15 1022 30.18 852 25.16 -4.1 24.6 61 -10.5 13.1
03:20 1022 30.18 852 25.16 -4 24.8 61 -10.4 13.3
03:25 1022 30.18 852 25.16 -4.2 24.5 62 -10.4 13.2
03:30 1022 30.18 851 25.13 -4.4 24.1 62 -10.5 13
03:35 1022 30.18 851 25.13 -4.5 23.8 63 -10.6 12.8
03:40 1022 30.18 851 25.13 -4.7 23.6 64 -10.5 13
03:45 1022 30.18 851 25.13 -4.7 23.5 63 -10.7 12.7
03:50 1022 30.18 851 25.13 -4.7 23.5 63 -10.8 12.5
03:55 1022 30.18 851 25.13 -4.7 23.6 63 -10.6 12.9
04:00 1022 30.18 851 25.13 -4.8 23.4 63 -10.8 12.5
04:05 1022 30.18 851 25.13 -4.7 23.6 64 -10.5 13.1
04:10 1022 30.18 851 25.13 -4.9 23.1 64 -10.7 12.7
04:15 1022 30.18 851 25.13 -4.9 23.1 63 -10.8 12.5
04:20 1022 30.18 851 25.13 -4.7 23.5 64 -10.6 12.9
04:25 1022 30.18 851 25.13 -4.3 24.3 61 -10.6 12.8
04:30 1022 30.18 851 25.13 -4 24.8 60 -10.8 12.6
04:35 1022 30.18 851 25.13 -3.6 25.5 59 -10.5 13
04:40 1022 30.18 851 25.13 -4 24.8 62 -10.3 13.4
04:45 1022 30.18 851 25.13 -4.1 24.7 62 -10.4 13.4
04:50 1022 30.18 851 25.13 -4.3 24.3 62 -10.4 13.2
04:55 1022 30.18 851 25.13 -4.4 24.1 63 -10.5 13.1
05:00 1022 30.18 851 25.13 -4.7 23.5 62 -10.8 12.5
05:05 1022 30.18 851 25.13 -5.1 22.8 64 -10.9 12.4
05:10 1022 30.18 851 25.13 -5.3 22.5 64 -11.2 11.9
05:15 1022 30.18 852 25.16 -5.1 22.9 63 -11.1 12
05:20 1022 30.18 851 25.13 -5 23.1 62 -11.2 11.9
05:25 1022 30.18 852 25.16 -4.8 23.3 62 -11 12.1
05:30 1022 30.18 852 25.16 -4.8 23.3 62 -11.1 12.1
05:35 1022 30.18 852 25.16 -4.7 23.5 63 -10.8 12.6
05:40 1022 30.18 852 25.16 -4.8 23.3 63 -10.8 12.6
05:45 1022 30.18 852 25.16 -4.7 23.6 62 -10.8 12.5
05:50 1022 30.18 852 25.16 -4.6 23.8 60 -11.2 11.8
05:55 1022 30.18 852 25.16 -4.7 23.5 62 -10.9 12.4
06:00 1023 30.21 852 25.16 -5.2 22.6 64 -11 12.1
06:05 1023 30.21 852 25.16 -5.3 22.5 63 -11.3 11.7
06:10 1022 30.18 852 25.16 -5.1 22.9 62 -11.2 11.9
06:15 1022 30.18 852 25.16 -5.1 22.8 62 -11.3 11.6
06:20 1022 30.18 852 25.16 -5.1 22.8 62 -11.4 11.5
06:25 1022 30.18 852 25.16 -5.2 22.6 63 -11.3 11.7
06:30 1022 30.18 852 25.16 -5.2 22.7 63 -11.2 11.9
06:35 1022 30.18 852 25.16 -5 22.9 62 -11.2 11.8
06:40 1023 30.21 852 25.16 -4.9 23.2 61 -11.4 11.5
06:45 1022 30.18 852 25.16 -4.7 23.6 60 -11.4 11.5
06:50 1023 30.21 852 25.16 -4.7 23.5 60 -11.3 11.7
06:55 1023 30.21 852 25.16 -4.8 23.3 61 -11.3 11.7
07:00 1023 30.21 852 25.16 -4.9 23.1 60 -11.5 11.3
07:05 1023 30.21 852 25.16 -5 23.1 61 -11.3 11.6
07:10 1023 30.21 852 25.16 -5.1 22.9 63 -11.1 12
07:15 1023 30.21 852 25.16 -5.5 22.1 65 -11.1 12
07:20 1023 30.21 852 25.16 -5.1 22.9 61 -11.5 11.3
07:25 1023 30.21 852 25.16 -4.8 23.4 60 -11.5 11.3
07:30 1023 30.21 852 25.16 -4.6 23.7 59 -11.5 11.2
07:35 1023 30.21 852 25.16 -4.2 24.4 58 -11.3 11.6
07:40 1023 30.21 852 25.16 -4.1 24.6 57 -11.5 11.4
07:45 1023 30.21 852 25.16 -4.1 24.6 56 -11.6 11.1
07:50 1023 30.21 852 25.16 -4.1 24.6 56 -11.8 10.8
07:55 1023 30.21 852 25.16 -4.1 24.7 55 -11.8 10.7
08:00 1023 30.21 852 25.16 -3.8 25.2 57 -11.1 11.9
08:05 1023 30.21 852 25.16 -3.2 26.3 52 -11.7 10.9
08:10 1023 30.21 852 25.16 -2.9 26.7 54 -10.9 12.4
08:15 1023 30.21 852 25.16 -2.6 27.3 53 -11 12.2
08:20 1023 30.21 852 25.16 -1.9 28.5 50 -11 12.2
08:25 1023 30.21 852 25.16 -1.6 29.1 51 -10.6 13
08:30 1023 30.21 853 25.19 -2.1 28.2 53 -10.4 13.2
08:35 1023 30.21 853 25.19 -2.5 27.5 53 -10.9 12.4
08:40 1023 30.21 853 25.19 -2.6 27.4 53 -10.9 12.5
08:45 1023 30.21 853 25.19 -2.7 27.1 54 -10.8 12.6
08:50 1023 30.21 853 25.19 -2 28.3 51 -11 12.3
08:55 1023 30.21 853 25.19 -1.8 28.7 50 -10.8 12.5
09:00 1023 30.21 853 25.19 -1.6 29.1 48 -11.3 11.7
09:05 1023 30.21 853 25.19 -1.1 30.1 47 -11 12.2
09:10 1023 30.21 853 25.19 -0.8 30.6 47 -10.7 12.7
09:15 1023 30.21 853 25.19 -1.2 29.9 49 -10.6 13
09:20 1023 30.21 853 25.19 -1.4 29.5 48 -11 12.2
09:25 1023 30.21 853 25.19 -1.2 29.8 48 -11 12.3
09:30 1023 30.21 852 25.16 -1.3 29.7 48 -11 12.3
09:35 1023 30.21 852 25.16 -0.6 31 47 -10.7 12.8
09:40 1023 30.21 852 25.16 0.2 32.3 45 -10.5 13.1
09:45 1023 30.21 852 25.16 0.9 33.7 43 -10.3 13.4
09:50 1023 30.21 852 25.16 0.8 33.5 44 -10 14
09:55 1023 30.21 852 25.16 0.5 32.9 45 -10.2 13.7
10:00 1023 30.21 852 25.16 1.1 33.9 43 -10.2 13.7
10:05 1023 30.21 852 25.16 2 35.6 41 -9.8 14.3
10:10 1023 30.21 852 25.16 1.7 35 43 -9.7 14.5
10:15 1023 30.21 852 25.16 1.7 35.1 42 -9.8 14.4
10:20 1023 30.21 852 25.16 1.6 34.8 42 -9.9 14.2
10:25 1023 30.21 852 25.16 2 35.6 41 -10 14
10:30 1023 30.21 852 25.16 2.7 36.8 41 -9.5 15
10:35 1023 30.21 852 25.16 2.6 36.7 40 -9.8 14.4
10:40 1023 30.21 852 25.16 3 37.3 40 -9.3 15.2
10:45 1023 30.21 852 25.16 3 37.5 39 -9.6 14.7
10:50 1023 30.21 852 25.16 2.9 37.2 40 -9.5 14.9
10:55 1023 30.21 852 25.16 3.5 38.2 37 -9.8 14.3
11:00 1023 30.21 852 25.16 4.1 39.5 35 -9.9 14.1
11:05 1023 30.21 852 25.16 4.1 39.4 35 -10 14.1
11:10 1023 30.21 852 25.16 3.4 38.1 37 -9.9 14.2
11:15 1023 30.21 852 25.16 3.7 38.7 36 -10.1 13.8
11:20 1023 30.21 852 25.16 3.9 38.9 35 -10.4 13.3
11:25 1023 30.21 852 25.16 4.4 40 34 -10 14
11:30 1023 30.21 852 25.16 4 39.2 36 -9.7 14.5
11:35 1023 30.21 852 25.16 4.3 39.7 34 -10.4 13.2
11:40 1023 30.21 852 25.16 4.3 39.7 34 -10.2 13.6
11:45 1023 30.21 852 25.16 4.2 39.6 36 -9.7 14.6
11:50 1023 30.21 852 25.16 4.8 40.7 34 -9.9 14.1
11:55 1023 30.21 852 25.16 5.1 41.2 34 -9.4 15.1
12:00 1023 30.21 852 25.16 4.9 40.8 34 -9.7 14.6
12:05 1023 30.21 852 25.16 5 41 33 -10.1 13.8
12:10 1023 30.21 852 25.16 5 41.1 33 -9.9 14.2
12:15 1023 30.21 852 25.16 4.9 40.8 34 -9.7 14.5
12:20 1023 30.21 852 25.16 5.3 41.6 32 -10.1 13.9
12:25 1023 30.21 852 25.16 5.9 42.6 33 -9.2 15.5
12:30 1023 30.21 852 25.16 6 42.9 32 -9.6 14.7
12:35 1023 30.21 852 25.16 6.2 43.1 31 -9.6 14.7
12:40 1023 30.21 852 25.16 5.7 42.2 33 -9.4 15.1
12:45 1023 30.21 852 25.16 5.8 42.5 34 -9 15.8
12:50 1023 30.21 852 25.16 5.8 42.4 33 -9.2 15.5
12:55 1023 30.21 852 25.16 5.5 41.8 34 -9.1 15.7
13:00 1023 30.21 852 25.16 6.2 43.1 32 -9.4 15.1
13:05 1022 30.18 852 25.16 6.7 44 30 -9.8 14.4
13:10 1022 30.18 852 25.16 7.1 44.7 30 -9.5 14.8
13:15 1022 30.18 852 25.16 6.8 44.3 29 -10 14.1
13:20 1022 30.18 852 25.16 7.1 44.9 29 -9.7 14.5
13:25 1022 30.18 851 25.13 7.1 44.7 30 -9.4 15
13:30 1022 30.18 851 25.13 6.4 43.5 30 -10 14
13:35 1022 30.18 851 25.13 6.8 44.2 30 -9.6 14.8
13:40 1022 30.18 851 25.13 7.4 45.3 28 -10.2 13.7
13:45 1022 30.18 851 25.13 7.7 45.9 29 -9.2 15.5
13:50 1022 30.18 851 25.13 7.5 45.5 29 -9.6 14.8
13:55 1022 30.18 851 25.13 6.3 43.4 31 -9.6 14.8
14:00 1022 30.18 851 25.13 7.4 45.2 30 -9.2 15.4
14:05 1022 30.18 851 25.13 6.5 43.7 31 -9.3 15.2
14:10 1022 30.18 851 25.13 7.2 44.9 29 -9.8 14.3
14:15 1022 30.18 851 25.13 6.7 44 29 -10.1 13.8
14:20 1022 30.18 851 25.13 7.5 45.5 27 -10.3 13.5
14:25 1022 30.18 851 25.13 7.7 45.9 28 -9.8 14.4
14:30 1022 30.18 851 25.13 7.7 45.8 28 -9.9 14.3
14:35 1022 30.18 851 25.13 8 46.4 28 -9.5 14.8
14:40 1022 30.18 851 25.13 8.1 46.6 28 -9.5 15
14:45 1022 30.18 851 25.13 7.8 46 28 -9.6 14.6
14:50 1022 30.18 851 25.13 8.1 46.7 26 -10.2 13.7
14:55 1022 30.18 851 25.13 8.5 47.2 24 -10.9 12.3
15:00 1022 30.18 851 25.13 8.4 47.1 26 -10.2 13.7
15:05 1022 30.18 851 25.13 8.4 47.1 26 -9.9 14.2
15:10 1022 30.18 851 25.13 8.6 47.5 26 -9.8 14.3
15:15 1022 30.18 851 25.13 8.1 46.5 26 -10.1 13.8
15:20 1022 30.18 851 25.13 6.9 44.4 27 -11 12.2
15:25 1021 30.15 851 25.13 6.4 43.4 26 -11.6 11.1
15:30 1021 30.15 851 25.13 6.9 44.3 25 -12 10.4
15:35 1021 30.15 851 25.13 7.5 45.4 24 -11.7 10.9
15:40 1021 30.15 851 25.13 7.8 46.1 23 -12.3 9.8
15:45 1021 30.15 851 25.13 7.7 45.9 24 -11.6 11.1
15:50 1021 30.15 851 25.13 8.1 46.5 24 -11.6 11.2
15:55 1021 30.15 851 25.13 8.1 46.5 25 -10.8 12.5
16:00 1021 30.15 850 25.1 7.5 45.5 27 -10.5 13.1
16:05 1021 30.15 850 25.1 6.9 44.4 28 -10.3 13.5
16:10 1021 30.15 850 25.1 6.8 44.2 29 -10.1 13.8
16:15 1021 30.15 850 25.1 7 44.6 29 -10.1 13.9
16:20 1021 30.15 850 25.1 7.2 44.9 27 -10.4 13.2
16:25 1021 30.15 850 25.1 7.3 45.1 27 -10.4 13.3
16:30 1021 30.15 850 25.1 6.9 44.4 27 -10.7 12.7
16:35 1021 30.15 850 25.1 7.1 44.8 27 -10.9 12.4
16:40 1021 30.15 850 25.1 7.7 45.9 26 -10.8 12.5
16:45 1021 30.15 851 25.13 7.9 46.1 26 -10.6 12.9
16:50 1021 30.15 851 25.13 7.9 46.1 25 -10.9 12.5
16:55 1021 30.15 851 25.13 7.9 46.1 25 -10.8 12.5
17:00 1021 30.15 851 25.13 7.8 46 25 -11 12.2
17:05 1021 30.15 850 25.1 7.7 45.9 25 -11 12.2
17:10 1021 30.15 851 25.13 7.6 45.7 25 -11 12.3
17:15 1021 30.15 851 25.13 7.4 45.3 26 -11.1 12
17:20 1021 30.15 850 25.1 6.7 44.1 27 -10.9 12.5
17:25 1021 30.15 850 25.1 6.4 43.5 27 -11.3 11.7
17:30 1021 30.15 850 25.1 6.6 43.9 26 -11.4 11.5
17:35 1021 30.15 850 25.1 6.4 43.5 29 -10.5 13.2
17:40 1021 30.15 850 25.1 5.8 42.4 31 -10.3 13.5
17:45 1021 30.15 850 25.1 5.7 42.2 31 -10.3 13.5
17:50 1021 30.15 850 25.1 6 42.7 30 -10.1 13.7
17:55 1021 30.15 850 25.1 5.9 42.6 31 -9.9 14.2
18:00 1021 30.15 850 25.1 5.4 41.7 34 -9.4 15.2
18:05 1021 30.15 850 25.1 4.3 39.8 37 -9 15.8
18:10 1021 30.15 850 25.1 3.9 38.9 40 -8.7 16.4
18:15 1021 30.15 850 25.1 3.7 38.6 40 -8.6 16.5
18:20 1021 30.15 850 25.1 3.5 38.2 42 -8.2 17.2
18:25 1021 30.15 850 25.1 2.9 37.1 43 -8.4 16.9
18:30 1021 30.15 850 25.1 2.2 35.9 42 -9.4 15.1
18:35 1021 30.15 850 25.1 1.8 35.3 42 -9.8 14.4
18:40 1021 30.15 851 25.13 1.8 35.2 42 -9.8 14.3
18:45 1021 30.15 851 25.13 1.9 35.4 41 -10.1 13.8
18:50 1021 30.15 851 25.13 1.5 34.6 43 -9.7 14.5
18:55 1021 30.15 851 25.13 1.3 34.3 42 -10.3 13.5
19:00 1021 30.15 851 25.13 1.4 34.4 41 -10.6 12.9
19:05 1021 30.15 851 25.13 1.2 34.2 42 -10.4 13.2
19:10 1021 30.15 851 25.13 1 33.9 40 -11.1 11.9
19:15 1021 30.15 851 25.13 1.3 34.3 37 -12 10.4
19:20 1021 30.15 851 25.13 1 33.8 38 -12 10.5
19:25 1021 30.15 851 25.13 1.3 34.4 34 -13 8.5
19:30 1021 30.15 851 25.13 1.8 35.2 33 -12.8 9
19:35 1021 30.15 851 25.13 1.7 35 34 -12.7 9.2
19:40 1021 30.15 851 25.13 1.4 34.5 34 -12.8 8.9
19:45 1021 30.15 851 25.13 0.9 33.6 37 -12.3 9.9
19:50 1021 30.15 851 25.13 0.3 32.6 39 -12.2 10
19:55 1021 30.15 851 25.13 0.1 32.2 38 -12.6 9.2
20:00 1021 30.15 851 25.13 0.1 32.2 39 -12.4 9.6
20:05 1021 30.15 851 25.13 0.2 32.3 39 -12.1 10.2
20:10 1021 30.15 851 25.13 0.2 32.4 38 -12.4 9.7
20:15 1021 30.15 851 25.13 0.2 32.4 37 -12.8 9
20:20 1021 30.15 851 25.13 0.1 32.1 37 -13 8.6
20:25 1021 30.15 851 25.13 -0.1 31.9 36 -13.3 8
20:30 1021 30.15 851 25.13 -0.1 31.9 34 -14 6.8
20:35 1022 30.18 851 25.13 0.1 32.2 33 -14.3 6.3
20:40 1022 30.18 851 25.13 0.1 32.2 34 -13.9 7
20:45 1022 30.18 851 25.13 -0.2 31.6 35 -13.9 6.9
20:50 1022 30.18 851 25.13 -0.3 31.5 35 -14.1 6.7
20:55 1022 30.18 851 25.13 -0.4 31.3 35 -14.1 6.7
21:00 1022 30.18 851 25.13 -0.5 31.2 35 -14.1 6.6
21:05 1022 30.18 851 25.13 -0.6 30.9 35 -14.2 6.4
21:10 1022 30.18 851 25.13 -0.7 30.8 35 -14.3 6.2
21:15 1021 30.15 851 25.13 -0.7 30.7 35 -14.5 6
21:20 1021 30.15 851 25.13 -0.5 31.2 33 -14.9 5.1
21:25 1021 30.15 851 25.13 -0.2 31.7 33 -14.5 5.9
21:30 1021 30.15 851 25.13 -0.4 31.3 34 -14.4 6.2
21:35 1021 30.15 851 25.13 -0.5 31.1 35 -14.3 6.2
21:40 1021 30.15 851 25.13 -0.9 30.5 36 -14 6.8
21:45 1021 30.15 851 25.13 -0.8 30.5 35 -14.5 5.9
21:50 1021 30.15 851 25.13 -0.8 30.6 35 -14.6 5.8
21:55 1021 30.15 851 25.13 -0.7 30.7 35 -14.5 6
22:00 1021 30.15 851 25.13 -0.8 30.6 35 -14.5 5.9
22:05 1021 30.15 851 25.13 -0.6 30.9 33 -15 4.9
22:10 1021 30.15 851 25.13 -0.5 31.2 34 -14.6 5.7
22:15 1022 30.18 851 25.13 -0.6 31 34 -14.6 5.7
22:20 1022 30.18 851 25.13 -0.5 31.2 33 -14.8 5.3
22:25 1022 30.18 851 25.13 -0.6 31 33 -15 5
22:30 1021 30.15 851 25.13 -0.8 30.6 34 -14.9 5.1
22:35 1021 30.15 851 25.13 -0.9 30.3 34 -14.9 5.1
22:40 1021 30.15 851 25.13 -0.9 30.3 34 -14.9 5.1
22:45 1021 30.15 851 25.13 -0.9 30.3 34 -15 5
22:50 1021 30.15 851 25.13 -1 30.2 34 -15.1 4.8
22:55 1021 30.15 851 25.13 -0.9 30.3 34 -15 5
23:00 1021 30.15 851 25.13 -1.1 30.1 35 -14.9 5.2
23:05 1021 30.15 851 25.13 -1.2 29.9 35 -14.7 5.5
23:10 1021 30.15 851 25.13 -1.3 29.6 36 -14.5 5.9
23:15 1021 30.15 851 25.13 -1.4 29.5 36 -14.7 5.6
23:20 1021 30.15 851 25.13 -1.4 29.6 35 -15.1 4.9
23:25 1021 30.15 851 25.13 -1.3 29.6 35 -15.1 4.9
23:30 1022 30.18 851 25.13 -1.4 29.4 35 -15 5
23:35 1022 30.18 851 25.13 -1.2 29.9 33 -15.4 4.4
23:40 1022 30.18 851 25.13 -0.9 30.3 35 -14.6 5.7
23:45 1022 30.18 851 25.13 -0.9 30.4 32 -15.7 3.8
23:50 1021 30.15 851 25.13 -0.5 31.1 32 -15.2 4.7
23:55 1021 30.15 851 25.13 -0.8 30.5 33 -15.1 4.7
24:00 1021 30.15 851 25.13 -1.1 30 34 -15.1 4.9